Time;durP1;ratioP1;P1;durP2;ratioP2;P2;SDS_P1;SDS_P2;PMS_P1;PMS_P2;Temp;Humidity;BMP_temperature;BMP_pressure;BME280_temperature;BME280_humidity;BME280_pressure;Samples;Min_cycle;Max_cycle;Signal;HPM_P1;HPM_P2
2023/06/24 00:00:43;;;;;;;6.85;5.50;;;;;;;;;;5051328;28;20226;-61
2023/06/24 00:03:09;;;;;;;9.93;5.45;;;;;;;;;;5051487;28;20243;-61
2023/06/24 00:05:34;;;;;;;6.95;5.68;;;;;;;;;;5051974;28;20225;-61
2023/06/24 00:08:02;;;;;;;7.22;5.45;;;;;;;;;;5051900;28;20225;-61
2023/06/24 00:10:27;;;;;;;11.77;5.75;;;;;;;;;;5071657;28;20248;-61
2023/06/24 00:12:52;;;;;;;10.65;5.75;;;;;;;;;;5072330;28;20218;-61
2023/06/24 00:15:18;;;;;;;7.47;5.53;;;;;;;;;;5062013;28;20211;-61
2023/06/24 00:17:43;;;;;;;9.07;6.20;;;;;;;;;;5052113;28;20246;-60
2023/06/24 00:20:10;;;;;;;10.00;5.57;;;;;;;;;;5033517;28;20210;-60
2023/06/24 00:22:36;;;;;;;7.15;5.88;;;;;;;;;;5050868;28;20639;-61
2023/06/24 00:25:01;;;;;;;10.52;6.03;;;;;;;;;;5051463;28;20678;-61
2023/06/24 00:27:27;;;;;;;9.13;5.93;;;;;;;;;;5051871;28;20583;-61
2023/06/24 00:29:52;;;;;;;7.05;5.78;;;;;;;;;;5050724;28;20204;-61
2023/06/24 00:32:17;;;;;;;9.75;5.72;;;;;;;;;;5051276;28;20218;-61
2023/06/24 00:34:43;;;;;;;7.40;5.60;;;;;;;;;;5051693;28;20662;-61
2023/06/24 00:37:09;;;;;;;8.77;6.13;;;;;;;;;;5050356;28;20210;-61
2023/06/24 00:39:34;;;;;;;9.45;6.20;;;;;;;;;;5051822;28;20215;-61
2023/06/24 00:41:59;;;;;;;10.00;6.28;;;;;;;;;;5051728;28;20223;-61
2023/06/24 00:44:25;;;;;;;8.70;5.93;;;;;;;;;;5050239;28;20590;-61
2023/06/24 00:46:50;;;;;;;7.72;6.07;;;;;;;;;;5051469;28;20280;-61
2023/06/24 00:49:15;;;;;;;9.68;5.65;;;;;;;;;;5070069;28;20286;-61
2023/06/24 00:51:50;;;;;;;8.02;6.18;;;;;;;;;;5071280;28;20214;-61
2023/06/24 00:54:15;;;;;;;12.50;6.53;;;;;;;;;;5071064;28;20222;-61
2023/06/24 00:56:42;;;;;;;9.95;5.93;;;;;;;;;;5053874;28;20213;-61
2023/06/24 00:59:07;;;;;;;10.25;6.03;;;;;;;;;;5050972;28;20211;-61
2023/06/24 01:01:35;;;;;;;7.88;5.72;;;;;;;;;;5051354;28;20207;-61
2023/06/24 01:04:00;;;;;;;10.32;5.88;;;;;;;;;;5050598;28;20234;-61
2023/06/24 01:06:29;;;;;;;8.55;5.55;;;;;;;;;;5050938;28;20295;-61
2023/06/24 01:08:56;;;;;;;7.70;5.53;;;;;;;;;;5042426;28;20203;-61
2023/06/24 01:11:21;;;;;;;7.03;5.68;;;;;;;;;;5072086;28;20214;-61
2023/06/24 01:13:47;;;;;;;6.88;5.20;;;;;;;;;;5075214;28;20207;-61
2023/06/24 01:16:15;;;;;;;9.57;5.50;;;;;;;;;;5058467;28;20697;-60
2023/06/24 01:18:42;;;;;;;7.35;5.45;;;;;;;;;;5036415;28;20591;-61
2023/06/24 01:21:08;;;;;;;11.10;5.20;;;;;;;;;;5054301;28;20583;-61
2023/06/24 01:23:39;;;;;;;8.02;4.88;;;;;;;;;;5054569;28;20223;-61
2023/06/24 01:26:21;;;;;;;8.48;5.35;;;;;;;;;;5035716;28;20219;-61
2023/06/24 01:28:49;;;;;;;6.88;5.07;;;;;;;;;;5037147;28;20341;-61
2023/06/24 01:31:26;;;;;;;9.57;5.20;;;;;;;;;;5054367;28;20261;-61
2023/06/24 01:33:51;;;;;;;12.18;5.40;;;;;;;;;;5054152;28;20308;-61
2023/06/24 01:36:17;;;;;;;6.90;4.72;;;;;;;;;;5054179;28;20693;-61
2023/06/24 01:38:44;;;;;;;5.70;4.82;;;;;;;;;;5036001;28;20325;-61
2023/06/24 01:41:09;;;;;;;7.82;5.10;;;;;;;;;;5054179;28;20298;-61
2023/06/24 01:43:34;;;;;;;7.68;4.55;;;;;;;;;;5054550;28;20322;-61
2023/06/24 01:45:59;;;;;;;10.63;4.80;;;;;;;;;;5035395;28;20248;-61
2023/06/24 01:48:25;;;;;;;9.07;4.82;;;;;;;;;;5048308;28;20221;-61
2023/06/24 01:50:58;;;;;;;9.18;4.85;;;;;;;;;;5074696;28;20555;-61
2023/06/24 01:53:23;;;;;;;6.40;4.75;;;;;;;;;;5055348;28;20230;-61
2023/06/24 01:55:48;;;;;;;5.40;4.70;;;;;;;;;;5046920;28;20258;-60
2023/06/24 01:58:14;;;;;;;8.35;4.50;;;;;;;;;;5053599;28;20207;-61
2023/06/24 02:00:39;;;;;;;8.05;4.80;;;;;;;;;;5035453;28;20557;-61
2023/06/24 02:03:05;;;;;;;5.85;4.70;;;;;;;;;;5032291;28;20235;-61
2023/06/24 02:05:30;;;;;;;5.85;4.80;;;;;;;;;;5033203;28;20223;-61
2023/06/24 02:07:56;;;;;;;5.60;4.43;;;;;;;;;;5033860;28;20712;-61
2023/06/24 02:10:21;;;;;;;7.30;4.63;;;;;;;;;;5053657;28;20227;-61
2023/06/24 02:12:49;;;;;;;8.07;4.65;;;;;;;;;;5052723;28;20203;-61
2023/06/24 02:15:14;;;;;;;9.48;5.10;;;;;;;;;;5043641;28;20679;-61
2023/06/24 02:17:40;;;;;;;8.90;4.55;;;;;;;;;;5028309;28;20231;-61
2023/06/24 02:20:06;;;;;;;6.63;4.90;;;;;;;;;;5023742;28;20781;-61
2023/06/24 02:22:32;;;;;;;9.18;5.00;;;;;;;;;;5031241;28;20216;-61
2023/06/24 02:24:57;;;;;;;7.43;4.88;;;;;;;;;;5023341;28;20230;-61
2023/06/24 02:27:22;;;;;;;8.32;5.15;;;;;;;;;;5026473;28;20254;-61
2023/06/24 02:29:48;;;;;;;6.85;5.25;;;;;;;;;;5023130;28;20274;-61
2023/06/24 02:32:13;;;;;;;10.70;5.47;;;;;;;;;;5020637;28;20726;-61
2023/06/24 02:34:39;;;;;;;9.50;5.28;;;;;;;;;;5017839;28;20687;-61
2023/06/24 02:37:04;;;;;;;7.03;5.20;;;;;;;;;;5014687;28;21015;-61
2023/06/24 02:39:29;;;;;;;8.80;4.60;;;;;;;;;;5017722;28;20222;-61
2023/06/24 02:41:55;;;;;;;7.22;5.07;;;;;;;;;;5040774;28;20223;-61
2023/06/24 02:44:20;;;;;;;8.07;5.30;;;;;;;;;;5042397;28;20585;-61
2023/06/24 02:46:45;;;;;;;7.70;5.28;;;;;;;;;;5033725;28;20338;-61
2023/06/24 02:49:12;;;;;;;8.43;5.15;;;;;;;;;;5022191;28;20216;-61
2023/06/24 02:51:38;;;;;;;6.80;5.05;;;;;;;;;;5038360;28;20612;-61
2023/06/24 02:54:03;;;;;;;9.48;5.35;;;;;;;;;;5040930;28;20569;-61
2023/06/24 02:56:29;;;;;;;8.02;5.15;;;;;;;;;;5029522;28;20212;-61
2023/06/24 02:58:54;;;;;;;7.18;5.40;;;;;;;;;;5032930;28;21257;-61
2023/06/24 03:01:24;;;;;;;8.35;5.35;;;;;;;;;;5034679;28;20217;-61
2023/06/24 03:03:49;;;;;;;7.80;5.65;;;;;;;;;;5039784;28;20803;-61
2023/06/24 03:06:17;;;;;;;8.85;5.70;;;;;;;;;;5041237;28;20219;-61
2023/06/24 03:08:43;;;;;;;9.75;5.88;;;;;;;;;;5036504;28;20216;-61
2023/06/24 03:11:08;;;;;;;7.90;5.55;;;;;;;;;;5039770;28;20269;-61
2023/06/24 03:13:33;;;;;;;7.40;6.20;;;;;;;;;;5042646;28;20221;-61
2023/06/24 03:15:59;;;;;;;10.82;6.50;;;;;;;;;;5028942;28;20220;-61
2023/06/24 03:18:24;;;;;;;8.10;6.53;;;;;;;;;;5016753;28;20716;-61
2023/06/24 03:20:49;;;;;;;8.45;6.50;;;;;;;;;;5014689;28;20515;-61
2023/06/24 03:23:15;;;;;;;9.88;6.53;;;;;;;;;;5013996;28;20609;-61
2023/06/24 03:25:40;;;;;;;6.50;5.40;;;;;;;;;;5022497;28;20229;-61
2023/06/24 03:28:07;;;;;;;9.10;5.95;;;;;;;;;;5041714;28;20257;-61
2023/06/24 03:30:32;;;;;;;9.77;6.25;;;;;;;;;;5042606;28;20223;-61
2023/06/24 03:32:58;;;;;;;9.35;6.38;;;;;;;;;;5040787;28;20222;-61
2023/06/24 03:35:23;;;;;;;9.07;5.97;;;;;;;;;;5041923;28;20272;-61
2023/06/24 03:37:49;;;;;;;9.70;6.15;;;;;;;;;;5042414;28;20681;-61
2023/06/24 03:40:14;;;;;;;10.05;6.93;;;;;;;;;;5031331;28;20550;-61
2023/06/24 03:42:39;;;;;;;9.45;6.65;;;;;;;;;;5014314;28;20598;-61
2023/06/24 03:45:05;;;;;;;10.63;7.15;;;;;;;;;;5013853;28;20224;-60
2023/06/24 03:47:30;;;;;;;11.73;7.03;;;;;;;;;;5016838;28;20219;-61
2023/06/24 03:49:56;;;;;;;9.52;6.95;;;;;;;;;;5022114;28;20709;-61
2023/06/24 03:52:21;;;;;;;8.82;6.93;;;;;;;;;;5021786;28;20582;-61
2023/06/24 03:54:46;;;;;;;11.82;7.20;;;;;;;;;;5022522;28;20212;-61
2023/06/24 03:57:13;;;;;;;10.30;6.90;;;;;;;;;;5021891;28;20242;-60
2023/06/24 03:59:38;;;;;;;10.52;7.10;;;;;;;;;;5021511;28;20293;-61
2023/06/24 04:02:07;;;;;;;12.35;7.72;;;;;;;;;;5022047;28;20687;-61
2023/06/24 04:04:33;;;;;;;11.15;7.70;;;;;;;;;;5033395;28;20247;-61
2023/06/24 04:06:58;;;;;;;10.40;7.70;;;;;;;;;;5033088;28;20306;-61
2023/06/24 04:09:23;;;;;;;12.02;8.63;;;;;;;;;;5022323;28;20227;-61
2023/06/24 04:11:49;;;;;;;10.43;8.45;;;;;;;;;;5021507;28;20253;-61
2023/06/24 04:14:14;;;;;;;10.40;8.43;;;;;;;;;;5021379;28;20207;-62
2023/06/24 04:16:40;;;;;;;11.82;9.02;;;;;;;;;;5022518;28;20215;-61
2023/06/24 04:19:05;;;;;;;17.95;9.20;;;;;;;;;;5021357;28;20761;-60
2023/06/24 04:21:30;;;;;;;12.32;9.52;;;;;;;;;;5041078;28;20215;-61
2023/06/24 04:23:56;;;;;;;11.15;8.60;;;;;;;;;;5041421;28;20250;-61
2023/06/24 04:26:21;;;;;;;11.13;8.95;;;;;;;;;;5027029;28;20220;-61
2023/06/24 04:28:46;;;;;;;13.23;9.23;;;;;;;;;;5013103;28;20274;-61
2023/06/24 04:31:12;;;;;;;12.73;8.50;;;;;;;;;;5013582;28;20219;-61
2023/06/24 04:33:37;;;;;;;12.00;8.05;;;;;;;;;;5018746;28;20585;-61
2023/06/24 04:36:03;;;;;;;10.40;8.07;;;;;;;;;;5021188;28;20216;-60
2023/06/24 04:38:28;;;;;;;13.15;8.43;;;;;;;;;;5021971;28;20569;-61
2023/06/24 04:40:53;;;;;;;10.48;8.80;;;;;;;;;;5022103;28;20216;-61
2023/06/24 04:43:19;;;;;;;10.45;8.75;;;;;;;;;;5020580;28;20676;-61
2023/06/24 04:45:44;;;;;;;11.00;9.48;;;;;;;;;;5023431;28;20332;-61
2023/06/24 04:48:09;;;;;;;10.80;8.45;;;;;;;;;;5022630;28;20246;-61
2023/06/24 04:50:35;;;;;;;10.75;8.32;;;;;;;;;;5020477;28;20224;-61
2023/06/24 04:53:01;;;;;;;10.15;7.82;;;;;;;;;;5017605;28;20272;-61
2023/06/24 04:55:27;;;;;;;10.60;8.38;;;;;;;;;;5032330;28;20667;-61
2023/06/24 04:57:52;;;;;;;11.55;7.47;;;;;;;;;;5025448;28;20247;-61
2023/06/24 05:00:17;;;;;;;9.18;7.50;;;;;;;;;;5024274;28;20862;-62
2023/06/24 05:02:43;;;;;;;8.90;6.72;;;;;;;;;;5029764;28;20235;-63
2023/06/24 05:05:08;;;;;;;10.83;7.87;;;;;;;;;;5062596;28;20410;-61
2023/06/24 05:07:33;;;;;;;10.43;8.50;;;;;;;;;;5064137;28;20521;-62
2023/06/24 05:09:59;;;;;;;12.38;8.02;;;;;;;;;;5046987;28;20242;-62
2023/06/24 05:12:24;;;;;;;10.60;7.78;;;;;;;;;;5038038;28;20225;-62
2023/06/24 05:14:50;;;;;;;10.50;8.00;;;;;;;;;;5042274;28;20965;-63
2023/06/24 05:17:16;;;;;;;13.00;8.02;;;;;;;;;;5035357;28;20251;-62
2023/06/24 05:19:41;;;;;;;12.13;8.63;;;;;;;;;;5041778;28;20282;-63
2023/06/24 05:22:07;;;;;;;12.85;9.90;;;;;;;;;;5044514;28;20253;-62
2023/06/24 05:24:32;;;;;;;10.68;9.18;;;;;;;;;;5044044;28;20231;-62
2023/06/24 05:27:03;;;;;;;11.38;9.25;;;;;;;;;;5057927;28;20221;-63
2023/06/24 05:29:28;;;;;;;15.30;11.15;;;;;;;;;;5048719;28;20288;-62
2023/06/24 05:31:53;;;;;;;14.38;11.00;;;;;;;;;;5044139;28;20219;-62
2023/06/24 05:34:18;;;;;;;16.80;13.57;;;;;;;;;;5038198;28;20218;-62
2023/06/24 05:36:44;;;;;;;15.93;13.10;;;;;;;;;;5036362;28;20387;-61
2023/06/24 05:39:11;;;;;;;15.15;12.20;;;;;;;;;;5054379;28;20796;-62
2023/06/24 05:41:36;;;;;;;14.45;12.85;;;;;;;;;;5061496;28;20226;-62
2023/06/24 05:44:02;;;;;;;16.45;13.75;;;;;;;;;;5063539;28;20233;-62
2023/06/24 05:46:28;;;;;;;14.35;12.30;;;;;;;;;;5056519;28;20301;-63
2023/06/24 05:48:53;;;;;;;13.48;11.48;;;;;;;;;;5044256;28;20301;-63
2023/06/24 05:51:18;;;;;;;14.15;12.25;;;;;;;;;;5041829;28;20211;-63
2023/06/24 05:53:44;;;;;;;14.70;12.15;;;;;;;;;;5051764;28;20239;-63
2023/06/24 05:56:09;;;;;;;13.90;11.27;;;;;;;;;;5058423;28;20215;-62
2023/06/24 05:58:34;;;;;;;13.93;9.75;;;;;;;;;;5054250;28;20222;-62
2023/06/24 06:01:01;;;;;;;13.10;9.70;;;;;;;;;;5053124;28;20225;-61
2023/06/24 06:03:26;;;;;;;13.63;9.32;;;;;;;;;;5053135;28;20296;-62
2023/06/24 06:05:51;;;;;;;10.85;9.25;;;;;;;;;;5062187;28;20706;-63
2023/06/24 06:08:17;;;;;;;11.38;8.68;;;;;;;;;;5056561;28;20622;-62
2023/06/24 06:10:42;;;;;;;12.05;8.32;;;;;;;;;;5073833;28;20294;-62
2023/06/24 06:13:07;;;;;;;10.52;8.40;;;;;;;;;;5072542;28;20322;-61
2023/06/24 06:15:33;;;;;;;9.68;6.68;;;;;;;;;;5062079;28;20264;-61
2023/06/24 06:17:58;;;;;;;10.77;6.65;;;;;;;;;;5060062;28;20206;-62
2023/06/24 06:20:23;;;;;;;8.02;6.45;;;;;;;;;;5071701;28;20718;-63
2023/06/24 06:22:51;;;;;;;8.27;6.65;;;;;;;;;;5073390;28;20309;-63
2023/06/24 06:25:16;;;;;;;9.02;6.22;;;;;;;;;;5072267;28;20214;-63
2023/06/24 06:27:41;;;;;;;11.27;6.80;;;;;;;;;;5052607;28;20310;-62
2023/06/24 06:30:07;;;;;;;11.15;7.53;;;;;;;;;;5053008;28;20238;-62
2023/06/24 06:32:32;;;;;;;9.23;7.15;;;;;;;;;;5053390;28;20732;-62
2023/06/24 06:34:57;;;;;;;9.13;6.22;;;;;;;;;;5051828;28;20216;-62
2023/06/24 06:37:23;;;;;;;6.97;5.38;;;;;;;;;;5054257;28;20604;-63
2023/06/24 06:39:48;;;;;;;8.35;5.22;;;;;;;;;;5052766;28;20615;-62
2023/06/24 06:42:14;;;;;;;6.22;4.00;;;;;;;;;;5051391;28;20288;-62
2023/06/24 06:44:40;;;;;;;5.65;3.97;;;;;;;;;;5062623;28;20296;-62
2023/06/24 06:47:05;;;;;;;5.72;3.80;;;;;;;;;;5061865;28;20210;-62
2023/06/24 06:49:30;;;;;;;6.63;3.72;;;;;;;;;;5063157;28;20199;-62
2023/06/24 06:51:56;;;;;;;5.18;3.45;;;;;;;;;;5072141;28;20301;-62
2023/06/24 06:54:22;;;;;;;5.10;3.53;;;;;;;;;;5061795;28;20218;-62
2023/06/24 06:56:47;;;;;;;4.75;3.30;;;;;;;;;;5053587;28;20211;-62
2023/06/24 06:59:13;;;;;;;6.32;3.55;;;;;;;;;;5053978;28;20208;-62
2023/06/24 07:01:38;;;;;;;6.40;3.17;;;;;;;;;;5056467;28;20665;-62
2023/06/24 07:04:04;;;;;;;6.53;3.15;;;;;;;;;;5068588;28;20233;-61
2023/06/24 07:06:32;;;;;;;5.18;3.28;;;;;;;;;;5052230;28;20215;-62
2023/06/24 07:08:57;;;;;;;6.60;3.67;;;;;;;;;;5060359;28;20241;-62
2023/06/24 07:11:23;;;;;;;7.00;3.45;;;;;;;;;;5051577;28;20654;-62
2023/06/24 07:13:50;;;;;;;8.00;4.00;;;;;;;;;;5052369;28;20223;-62
2023/06/24 07:16:16;;;;;;;6.32;4.18;;;;;;;;;;5050892;28;20284;-62
2023/06/24 07:18:41;;;;;;;4.70;3.25;;;;;;;;;;5052235;28;20609;-61
2023/06/24 07:21:07;;;;;;;7.03;4.05;;;;;;;;;;5052022;28;20223;-61
2023/06/24 07:23:32;;;;;;;6.72;3.90;;;;;;;;;;5051127;28;20230;-62
2023/06/24 07:25:57;;;;;;;8.55;4.40;;;;;;;;;;5052004;28;20215;-62
2023/06/24 07:28:23;;;;;;;6.10;4.15;;;;;;;;;;5054064;28;20256;-62
2023/06/24 07:30:48;;;;;;;5.63;4.28;;;;;;;;;;5064718;28;20228;-62
2023/06/24 07:33:13;;;;;;;7.97;4.65;;;;;;;;;;5058837;28;20223;-62
2023/06/24 07:35:39;;;;;;;8.77;4.55;;;;;;;;;;5060109;28;20219;-61
2023/06/24 07:38:04;;;;;;;7.00;4.15;;;;;;;;;;5063712;28;20217;-61
2023/06/24 07:40:30;;;;;;;6.65;4.50;;;;;;;;;;5071835;28;20240;-61
2023/06/24 07:42:55;;;;;;;6.75;4.80;;;;;;;;;;5051273;28;20273;-62
2023/06/24 07:45:21;;;;;;;8.68;5.30;;;;;;;;;;5050587;28;20554;-62
2023/06/24 07:47:46;;;;;;;7.50;4.90;;;;;;;;;;5051555;28;20565;-62
2023/06/24 07:50:11;;;;;;;6.97;4.65;;;;;;;;;;5051367;28;20311;-62
2023/06/24 07:52:37;;;;;;;6.72;4.30;;;;;;;;;;5050732;28;20222;-62
2023/06/24 07:55:03;;;;;;;9.63;4.78;;;;;;;;;;5054527;28;20663;-61
2023/06/24 07:57:28;;;;;;;9.70;5.38;;;;;;;;;;5070881;28;20218;-61
2023/06/24 07:59:55;;;;;;;7.00;3.90;;;;;;;;;;5070935;28;20234;-62
2023/06/24 08:02:20;;;;;;;6.40;4.10;;;;;;;;;;5070834;28;20521;-61
2023/06/24 08:04:46;;;;;;;6.57;4.10;;;;;;;;;;5063298;28;20702;-62
2023/06/24 08:07:11;;;;;;;6.47;4.32;;;;;;;;;;5070286;28;20210;-62
2023/06/24 08:09:36;;;;;;;4.82;3.28;;;;;;;;;;5053416;28;20602;-62
2023/06/24 08:12:02;;;;;;;6.35;3.78;;;;;;;;;;5071211;28;20206;-63
2023/06/24 08:14:27;;;;;;;6.75;3.33;;;;;;;;;;5069326;28;20553;-63
2023/06/24 08:16:53;;;;;;;7.10;3.03;;;;;;;;;;5051474;28;20203;-63
2023/06/24 08:19:18;;;;;;;6.85;2.97;;;;;;;;;;5051106;28;20215;-63
2023/06/24 08:21:43;;;;;;;7.07;3.47;;;;;;;;;;5054861;28;20701;-62
2023/06/24 08:24:09;;;;;;;5.38;3.60;;;;;;;;;;5054799;28;20246;-63
2023/06/24 08:26:34;;;;;;;7.78;4.50;;;;;;;;;;5054773;28;20217;-62
2023/06/24 08:28:59;;;;;;;7.63;4.40;;;;;;;;;;5055454;28;20692;-61
2023/06/24 08:31:25;;;;;;;10.23;3.97;;;;;;;;;;5054938;28;20574;-63
2023/06/24 08:33:52;;;;;;;6.65;4.10;;;;;;;;;;5054268;28;20219;-62
2023/06/24 08:36:17;;;;;;;4.95;3.60;;;;;;;;;;5054860;28;20678;-63
2023/06/24 08:38:42;;;;;;;5.75;3.10;;;;;;;;;;5057593;28;20249;-64
2023/06/24 08:41:08;;;;;;;6.85;2.70;;;;;;;;;;5072134;28;20225;-63
2023/06/24 08:43:33;;;;;;;5.45;2.50;;;;;;;;;;5075197;28;20646;-62
2023/06/24 08:45:59;;;;;;;3.15;2.20;;;;;;;;;;5057338;28;20293;-62
2023/06/24 08:48:24;;;;;;;5.55;2.65;;;;;;;;;;5073622;28;20645;-62
2023/06/24 08:50:50;;;;;;;4.50;2.50;;;;;;;;;;5075104;28;20222;-63
2023/06/24 08:53:16;;;;;;;5.80;2.75;;;;;;;;;;5074326;28;20210;-62
2023/06/24 08:55:43;;;;;;;5.47;2.30;;;;;;;;;;5065312;28;20268;-63
2023/06/24 08:58:08;;;;;;;3.80;2.10;;;;;;;;;;5054259;28;20595;-61
2023/06/24 09:00:33;;;;;;;3.45;2.20;;;;;;;;;;5055210;28;20207;-62
2023/06/24 09:02:59;;;;;;;4.03;2.30;;;;;;;;;;5053418;28;20266;-64
2023/06/24 09:05:24;;;;;;;3.90;2.35;;;;;;;;;;5068463;28;20217;-62
2023/06/24 09:07:50;;;;;;;4.35;2.65;;;;;;;;;;5074829;28;20623;-62
2023/06/24 09:10:29;;;;;;;5.93;2.75;;;;;;;;;;5053745;28;20719;-63
2023/06/24 09:12:54;;;;;;;3.95;2.78;;;;;;;;;;5037156;28;20207;-61
2023/06/24 09:15:20;;;;;;;4.75;2.85;;;;;;;;;;5062495;28;20545;-61
2023/06/24 09:17:46;;;;;;;5.97;2.88;;;;;;;;;;5073906;28;20214;-62
2023/06/24 09:20:11;;;;;;;6.38;2.65;;;;;;;;;;5073665;28;20224;-62
2023/06/24 09:22:39;;;;;;;4.72;2.40;;;;;;;;;;5074595;28;20668;-63
2023/06/24 09:25:05;;;;;;;3.40;2.13;;;;;;;;;;5072858;28;20712;-61
2023/06/24 09:27:31;;;;;;;4.78;2.67;;;;;;;;;;5074475;28;20236;-62
2023/06/24 09:29:56;;;;;;;4.82;2.53;;;;;;;;;;5073591;28;20591;-61
2023/06/24 09:32:21;;;;;;;6.18;3.20;;;;;;;;;;5073175;28;20222;-62
2023/06/24 09:34:47;;;;;;;5.70;3.30;;;;;;;;;;5073899;28;20241;-63
2023/06/24 09:37:13;;;;;;;4.13;2.85;;;;;;;;;;5055119;28;20741;-62
2023/06/24 09:39:39;;;;;;;6.95;4.20;;;;;;;;;;5056164;28;20297;-61
2023/06/24 09:42:06;;;;;;;5.22;3.20;;;;;;;;;;5073779;28;20211;-61
2023/06/24 09:44:31;;;;;;;4.88;3.20;;;;;;;;;;5055280;28;20590;-63
2023/06/24 09:46:57;;;;;;;4.93;2.80;;;;;;;;;;5074084;28;20214;-63
2023/06/24 09:49:22;;;;;;;5.47;3.17;;;;;;;;;;5072985;28;20276;-62
2023/06/24 09:51:48;;;;;;;7.43;3.60;;;;;;;;;;5073007;28;20231;-61
2023/06/24 09:54:14;;;;;;;6.53;3.80;;;;;;;;;;5055315;28;20268;-63
2023/06/24 09:56:44;;;;;;;5.45;3.67;;;;;;;;;;5057057;28;20246;-62
2023/06/24 09:59:09;;;;;;;5.78;3.33;;;;;;;;;;5052467;28;20208;-61
2023/06/24 10:01:35;;;;;;;5.55;3.67;;;;;;;;;;5053801;28;20627;-62
2023/06/24 10:04:01;;;;;;;5.20;3.40;;;;;;;;;;5053956;28;20628;-62
2023/06/24 10:06:26;;;;;;;9.20;4.20;;;;;;;;;;5052750;28;20215;-62
2023/06/24 10:08:52;;;;;;;5.93;3.45;;;;;;;;;;5061768;28;20301;-62
2023/06/24 10:11:17;;;;;;;6.10;3.70;;;;;;;;;;5054877;28;20248;-62
2023/06/24 10:13:42;;;;;;;5.63;4.10;;;;;;;;;;5072833;28;20234;-62
2023/06/24 10:16:08;;;;;;;7.43;3.95;;;;;;;;;;5039801;28;20558;-62
2023/06/24 10:18:35;;;;;;;6.10;4.10;;;;;;;;;;5057079;28;20210;-61
2023/06/24 10:21:00;;;;;;;5.65;4.03;;;;;;;;;;5064829;28;20236;-62
2023/06/24 10:23:30;;;;;;;7.73;5.10;;;;;;;;;;5071943;28;20414;-62
2023/06/24 10:25:55;;;;;;;5.38;3.65;;;;;;;;;;5073186;28;20696;-63
2023/06/24 10:28:21;;;;;;;8.50;4.07;;;;;;;;;;5071899;28;20233;-61
2023/06/24 10:30:56;;;;;;;7.60;4.05;;;;;;;;;;5072645;28;20746;-61
2023/06/24 10:33:21;;;;;;;6.53;4.63;;;;;;;;;;5070306;28;20333;-61
2023/06/24 10:35:46;;;;;;;7.80;4.50;;;;;;;;;;5063403;28;20286;-61
2023/06/24 10:38:12;;;;;;;6.43;4.03;;;;;;;;;;5063801;28;20270;-61
2023/06/24 10:40:39;;;;;;;7.07;4.18;;;;;;;;;;5066145;28;20211;-62
2023/06/24 10:43:25;;;;;;;8.15;4.40;;;;;;;;;;5059612;28;20743;-61
2023/06/24 10:45:52;;;;;;;9.32;6.18;;;;;;;;;;5072016;28;20297;-61
2023/06/24 10:48:20;;;;;;;7.70;5.13;;;;;;;;;;5071521;28;20256;-62
2023/06/24 10:50:46;;;;;;;6.18;4.15;;;;;;;;;;5053978;28;20696;-62
2023/06/24 10:53:12;;;;;;;7.00;4.63;;;;;;;;;;5070632;28;20285;-61
2023/06/24 10:55:37;;;;;;;8.98;5.05;;;;;;;;;;5071720;28;20218;-61
2023/06/24 10:58:11;;;;;;;7.05;4.82;;;;;;;;;;5072106;28;20226;-61
2023/06/24 11:00:36;;;;;;;7.43;4.60;;;;;;;;;;5072632;28;20229;-62
2023/06/24 11:03:09;;;;;;;9.13;5.13;;;;;;;;;;5070928;28;20234;-61
2023/06/24 11:05:34;;;;;;;7.68;5.03;;;;;;;;;;5058525;28;20211;-61
2023/06/24 11:08:00;;;;;;;9.20;4.70;;;;;;;;;;5067813;28;20438;-61
2023/06/24 11:10:25;;;;;;;5.90;3.80;;;;;;;;;;5070782;28;20218;-61
2023/06/24 11:12:51;;;;;;;5.85;4.10;;;;;;;;;;5066230;28;20210;-61
2023/06/24 11:15:17;;;;;;;6.45;3.97;;;;;;;;;;5067370;28;20617;-62
2023/06/24 11:17:43;;;;;;;4.63;3.50;;;;;;;;;;5064096;28;20336;-61
2023/06/24 11:20:09;;;;;;;6.25;4.20;;;;;;;;;;5061757;28;20673;-61
2023/06/24 11:22:34;;;;;;;5.80;3.90;;;;;;;;;;5059706;28;20230;-61
2023/06/24 11:25:00;;;;;;;9.15;5.10;;;;;;;;;;5062000;28;20460;-61
2023/06/24 11:27:26;;;;;;;8.55;4.60;;;;;;;;;;5064221;28;20254;-62
2023/06/24 11:29:51;;;;;;;8.57;6.00;;;;;;;;;;5061590;28;20199;-61
2023/06/24 11:32:17;;;;;;;7.80;5.10;;;;;;;;;;5059898;28;20222;-61
2023/06/24 11:34:42;;;;;;;6.78;4.38;;;;;;;;;;5062835;28;20245;-61
2023/06/24 11:37:10;;;;;;;6.47;4.15;;;;;;;;;;5055255;28;20226;-61
2023/06/24 11:39:35;;;;;;;5.20;3.55;;;;;;;;;;5052597;28;20305;-61
2023/06/24 11:42:00;;;;;;;7.63;3.90;;;;;;;;;;5051901;28;20662;-61
2023/06/24 11:44:26;;;;;;;6.03;3.55;;;;;;;;;;5051479;28;20593;-61
2023/06/24 11:46:52;;;;;;;4.65;3.50;;;;;;;;;;5052282;28;20682;-61
2023/06/24 11:49:18;;;;;;;6.05;4.07;;;;;;;;;;5051996;28;20257;-61
2023/06/24 11:51:47;;;;;;;5.80;4.10;;;;;;;;;;5051372;28;20203;-61
2023/06/24 11:54:13;;;;;;;5.10;3.38;;;;;;;;;;5051619;28;20246;-61
2023/06/24 11:56:39;;;;;;;7.13;4.70;;;;;;;;;;5068593;28;20629;-61
2023/06/24 11:59:05;;;;;;;8.13;5.30;;;;;;;;;;5070767;28;20249;-61
2023/06/24 12:01:31;;;;;;;6.90;3.90;;;;;;;;;;5072229;28;20222;-61
2023/06/24 12:03:57;;;;;;;6.35;3.90;;;;;;;;;;5068070;28;20590;-61
2023/06/24 12:06:23;;;;;;;5.63;3.60;;;;;;;;;;5050952;28;20231;-61
2023/06/24 12:08:48;;;;;;;6.65;3.55;;;;;;;;;;5059268;28;20624;-61
2023/06/24 12:11:14;;;;;;;5.03;3.83;;;;;;;;;;5071634;28;20268;-61
2023/06/24 12:13:39;;;;;;;8.02;4.03;;;;;;;;;;5071034;28;20293;-61
2023/06/24 12:16:04;;;;;;;6.82;4.20;;;;;;;;;;5056829;28;20620;-61
2023/06/24 12:18:30;;;;;;;7.88;4.95;;;;;;;;;;5051934;28;20218;-61
2023/06/24 12:20:55;;;;;;;5.57;4.13;;;;;;;;;;5051259;28;20222;-61
2023/06/24 12:23:21;;;;;;;7.07;4.55;;;;;;;;;;5051076;28;20218;-61
2023/06/24 12:25:46;;;;;;;6.32;4.25;;;;;;;;;;5051194;28;20269;-61
2023/06/24 12:28:11;;;;;;;6.43;4.22;;;;;;;;;;5051265;28;20219;-61
2023/06/24 12:30:37;;;;;;;7.15;4.47;;;;;;;;;;5051900;28;20805;-61
2023/06/24 12:33:03;;;;;;;7.78;3.85;;;;;;;;;;5050542;28;20725;-61
2023/06/24 12:35:28;;;;;;;6.55;4.50;;;;;;;;;;5051880;28;20215;-61
2023/06/24 12:37:54;;;;;;;5.57;3.90;;;;;;;;;;5051645;28;20238;-61
2023/06/24 12:40:19;;;;;;;6.35;4.18;;;;;;;;;;5050363;28;20333;-61
2023/06/24 12:42:45;;;;;;;6.88;4.68;;;;;;;;;;5051869;28;20678;-61
2023/06/24 12:45:10;;;;;;;6.30;4.45;;;;;;;;;;5050969;28;20231;-61
2023/06/24 12:47:35;;;;;;;7.25;4.25;;;;;;;;;;5051004;28;20587;-61
2023/06/24 12:50:01;;;;;;;6.53;5.00;;;;;;;;;;5051124;28;20223;-61
2023/06/24 12:52:26;;;;;;;7.53;4.03;;;;;;;;;;5051661;28;20257;-61
2023/06/24 12:54:51;;;;;;;5.57;3.83;;;;;;;;;;5051991;28;20294;-61
2023/06/24 12:57:17;;;;;;;7.72;4.63;;;;;;;;;;5071265;28;20210;-61
2023/06/24 12:59:42;;;;;;;7.40;3.90;;;;;;;;;;5071418;28;20576;-61
2023/06/24 13:02:07;;;;;;;5.35;4.05;;;;;;;;;;5070428;28;20239;-61
2023/06/24 13:04:33;;;;;;;7.10;4.25;;;;;;;;;;5062348;28;20235;-61
2023/06/24 13:06:58;;;;;;;8.68;3.60;;;;;;;;;;5052932;28;20254;-61
2023/06/24 13:09:23;;;;;;;8.32;4.18;;;;;;;;;;5065937;28;20226;-61
2023/06/24 13:11:49;;;;;;;6.72;3.90;;;;;;;;;;5075388;28;20301;-61
2023/06/24 13:14:14;;;;;;;6.85;4.47;;;;;;;;;;5074444;28;20222;-61
2023/06/24 13:16:40;;;;;;;7.05;4.00;;;;;;;;;;5054622;28;20550;-61
2023/06/24 13:19:05;;;;;;;5.82;3.53;;;;;;;;;;5054505;28;20735;-61
2023/06/24 13:21:31;;;;;;;10.25;4.15;;;;;;;;;;5055065;28;20215;-61
2023/06/24 13:23:56;;;;;;;5.95;3.72;;;;;;;;;;5053781;28;20245;-61
2023/06/24 13:26:21;;;;;;;7.22;3.97;;;;;;;;;;5054372;28;20222;-60
2023/06/24 13:28:48;;;;;;;5.20;3.70;;;;;;;;;;5054889;28;20233;-61
2023/06/24 13:31:14;;;;;;;7.07;3.42;;;;;;;;;;5056438;28;20672;-61
2023/06/24 13:33:39;;;;;;;5.30;3.33;;;;;;;;;;5050008;28;20226;-61
2023/06/24 13:36:05;;;;;;;7.07;3.47;;;;;;;;;;5054574;28;20300;-61
2023/06/24 13:38:30;;;;;;;5.65;3.63;;;;;;;;;;5059206;28;20301;-61
2023/06/24 13:40:56;;;;;;;8.52;3.70;;;;;;;;;;5062510;28;20628;-61
2023/06/24 13:43:21;;;;;;;7.20;3.83;;;;;;;;;;5047424;28;20215;-61
2023/06/24 13:45:46;;;;;;;5.82;3.85;;;;;;;;;;5048414;28;20211;-60
2023/06/24 13:48:12;;;;;;;5.82;3.85;;;;;;;;;;5047912;28;20219;-61
2023/06/24 13:50:37;;;;;;;5.75;3.45;;;;;;;;;;5060035;28;20301;-61
2023/06/24 13:53:03;;;;;;;6.55;3.78;;;;;;;;;;5067596;28;20353;-61
2023/06/24 13:55:28;;;;;;;5.50;3.05;;;;;;;;;;5057362;28;20337;-61
2023/06/24 13:57:54;;;;;;;6.90;4.05;;;;;;;;;;5039690;28;20214;-61
2023/06/24 14:00:19;;;;;;;5.80;3.30;;;;;;;;;;5040191;28;20219;-60
2023/06/24 14:02:45;;;;;;;6.20;3.50;;;;;;;;;;5043234;28;20231;-61
2023/06/24 14:05:10;;;;;;;5.60;3.78;;;;;;;;;;5047102;28;20322;-61
2023/06/24 14:07:36;;;;;;;5.60;3.50;;;;;;;;;;5059743;28;20211;-60
2023/06/24 14:10:01;;;;;;;7.45;3.90;;;;;;;;;;5049901;28;20245;-61
2023/06/24 14:12:26;;;;;;;6.53;3.80;;;;;;;;;;5047610;28;20211;-61
2023/06/24 14:14:52;;;;;;;7.70;3.45;;;;;;;;;;5048372;28;20255;-61
2023/06/24 14:17:17;;;;;;;6.90;4.30;;;;;;;;;;5046586;28;20215;-60
2023/06/24 14:19:42;;;;;;;5.78;3.38;;;;;;;;;;5038790;28;20499;-61
2023/06/24 14:22:08;;;;;;;8.85;4.28;;;;;;;;;;5039836;28;20230;-61
2023/06/24 14:24:33;;;;;;;5.63;3.63;;;;;;;;;;5052529;28;20567;-61
2023/06/24 14:26:58;;;;;;;6.40;3.50;;;;;;;;;;5066034;28;20234;-61
2023/06/24 14:29:24;;;;;;;6.28;3.78;;;;;;;;;;5066798;28;20218;-60
2023/06/24 14:31:49;;;;;;;6.43;3.65;;;;;;;;;;5049166;28;20219;-60